Time;durP1;ratioP1;P1;durP2;ratioP2;P2;SDS_P1;SDS_P2;PMS_P1;PMS_P2;Temp;Humidity;BMP_temperature;BMP_pressure;BME280_temperature;BME280_humidity;BME280_pressure;Samples;Min_cycle;Max_cycle;Signal;HPM_P1;HPM_P2
2021/12/30 00:03:26;;;;;;;;;;;5.30;99.90;;;;;;5176256;27;19925;-84
2021/12/30 00:05:53;;;;;;;;;;;5.30;99.90;;;;;;5138150;27;19930;-85
2021/12/30 00:08:21;;;;;;;;;;;5.30;99.90;;;;;;5117942;27;19931;-86
2021/12/30 00:10:48;;;;;;;;;;;5.30;99.90;;;;;;5100850;28;19924;-81
2021/12/30 00:13:15;;;;;;;;;;;5.30;99.90;;;;;;4998573;28;19926;-81
2021/12/30 00:15:41;;;;;;;;;;;5.30;99.90;;;;;;4885729;29;19929;-82
2021/12/30 00:18:09;;;;;;;;;;;5.30;99.90;;;;;;4629814;29;19942;-80
2021/12/30 00:25:41;;;;;;;;;;;5.30;99.90;;;;;;5185239;27;19925;-82
2021/12/30 00:28:09;;;;;;;;;;;5.30;99.90;;;;;;5139455;27;19923;-80
2021/12/30 00:30:36;;;;;;;;;;;5.30;99.90;;;;;;5139431;27;19923;-85
2021/12/30 00:33:03;;;;;;;;;;;5.30;99.90;;;;;;5104467;28;19936;-82
2021/12/30 00:35:30;;;;;;;;;;;5.30;99.90;;;;;;5049560;28;19926;-84
2021/12/30 00:37:57;;;;;;;;;;;5.40;99.90;;;;;;4889089;29;19928;-82
2021/12/30 00:40:23;;;;;;;;;;;5.50;99.90;;;;;;4715192;29;19939;-80
2021/12/30 00:47:55;;;;;;;;;;;5.40;99.90;;;;;;5195496;27;19941;-84
2021/12/30 00:50:21;;;;;;;;;;;5.40;99.90;;;;;;5154718;27;19930;-83
2021/12/30 00:52:48;;;;;;;;;;;5.50;99.90;;;;;;5113902;27;19932;-80
2021/12/30 00:55:15;;;;;;;;;;;5.50;99.90;;;;;;5091585;28;19932;-83
2021/12/30 00:57:42;;;;;;;;;;;5.50;99.90;;;;;;5010537;28;19938;-84
2021/12/30 01:00:11;;;;;;;;;;;5.50;99.90;;;;;;4809675;29;19930;-82
2021/12/30 01:02:37;;;;;;;;;;;5.50;99.90;;;;;;4626516;30;19942;-83
2021/12/30 01:07:43;;;;;;;;;;;5.60;99.90;;;;;;5152623;27;19926;-85
2021/12/30 01:10:11;;;;;;;;;;;5.60;99.90;;;;;;5116569;27;19930;-85
2021/12/30 01:12:38;;;;;;;;;;;5.60;99.90;;;;;;5075773;28;19924;-83
2021/12/30 01:15:08;;;;;;;;;;;5.60;99.90;;;;;;4986214;28;19927;-80
2021/12/30 01:17:45;;;;;;;;;;;5.60;99.90;;;;;;4910250;28;19933;-85
2021/12/30 01:20:13;;;;;;;;;;;5.60;99.90;;;;;;4697620;30;19932;-80
2021/12/30 01:22:40;;;;;;;;;;;5.60;99.90;;;;;;4502888;31;19940;-80
2021/12/30 01:30:17;;;;;;;;;;;5.70;99.90;;;;;;5173801;27;19926;-82
2021/12/30 01:32:44;;;;;;;;;;;5.70;99.90;;;;;;5117015;27;19924;-81
2021/12/30 01:35:12;;;;;;;;;;;5.70;99.90;;;;;;5097480;27;19924;-81
2021/12/30 01:37:40;;;;;;;;;;;5.70;99.90;;;;;;5106339;28;19940;-80
2021/12/30 01:40:11;;;;;;;;;;;5.70;99.90;;;;;;5018121;28;19937;-83
2021/12/30 01:42:37;;;;;;;;;;;5.70;99.90;;;;;;4873926;28;19930;-84
2021/12/30 01:45:05;;;;;;;;;;;5.70;99.90;;;;;;4575295;30;19935;-81
2021/12/30 01:52:37;;;;;;;;;;;5.70;99.90;;;;;;5157783;27;19925;-82
2021/12/30 01:55:03;;;;;;;;;;;5.80;99.90;;;;;;5117481;27;19930;-83
2021/12/30 01:57:30;;;;;;;;;;;5.80;99.90;;;;;;5114714;28;19939;-81
2021/12/30 01:59:57;;;;;;;;;;;5.80;99.90;;;;;;5048288;28;19932;-82
2021/12/30 02:02:24;;;;;;;;;;;5.80;99.90;;;;;;4986504;28;19927;-85
2021/12/30 02:04:52;;;;;;;;;;;5.90;99.90;;;;;;4728411;29;19940;-84
2021/12/30 02:07:18;;;;;;;;;;;5.90;99.90;;;;;;4463758;30;19956;-82
2021/12/30 02:14:46;;;;;;;;;;;5.90;99.90;;;;;;5174538;27;19925;-82
2021/12/30 02:17:12;;;;;;;;;;;5.90;99.90;;;;;;5138818;27;19924;-80
2021/12/30 02:19:39;;;;;;;;;;;5.90;99.90;;;;;;5138610;27;19938;-81
2021/12/30 02:22:07;;;;;;;;;;;5.90;99.90;;;;;;5128622;28;19931;-81
2021/12/30 02:24:34;;;;;;;;;;;6.00;99.90;;;;;;5035974;28;19926;-81
2021/12/30 02:27:01;;;;;;;;;;;6.00;99.90;;;;;;4948003;28;19935;-79
2021/12/30 02:29:28;;;;;;;;;;;6.00;99.90;;;;;;4699584;29;19941;-81
2021/12/30 02:36:55;;;;;;;;;;;6.00;99.90;;;;;;5173748;27;19925;-84
2021/12/30 02:39:23;;;;;;;;;;;6.10;99.90;;;;;;5133501;27;19930;-84
2021/12/30 02:41:50;;;;;;;;;;;6.10;99.90;;;;;;5122375;27;19924;-83
2021/12/30 02:44:16;;;;;;;;;;;6.00;99.90;;;;;;5096916;28;19925;-82
2021/12/30 02:46:43;;;;;;;;;;;6.10;99.90;;;;;;5020776;28;19926;-82
2021/12/30 02:49:10;;;;;;;;;;;6.00;99.90;;;;;;4902009;29;19935;-83
2021/12/30 02:51:37;;;;;;;;;;;6.00;99.90;;;;;;4724185;29;19939;-85
2021/12/30 02:57:52;;;;;;;;;;;6.00;99.90;;;;;;5187543;27;19925;-83
2021/12/30 03:00:19;;;;;;;;;;;6.10;99.90;;;;;;5134617;27;19915;-82
2021/12/30 03:02:45;;;;;;;;;;;6.00;99.90;;;;;;5125887;27;19931;-82
2021/12/30 03:05:14;;;;;;;;;;;6.10;99.90;;;;;;5130349;27;19924;-82
2021/12/30 03:07:41;;;;;;;;;;;6.10;99.90;;;;;;5068487;28;19929;-83
2021/12/30 03:10:12;;;;;;;;;;;6.10;99.90;;;;;;4899347;28;19930;-82
2021/12/30 03:12:39;;;;;;;;;;;6.10;99.90;;;;;;4593111;30;19936;-85
2021/12/30 03:19:33;;;;;;;;;;;6.10;99.90;;;;;;5173725;27;19926;-83
2021/12/30 03:22:00;;;;;;;;;;;6.20;99.90;;;;;;5117115;27;19930;-82
2021/12/30 03:24:27;;;;;;;;;;;6.20;99.90;;;;;;5115937;27;19938;-82
2021/12/30 03:26:54;;;;;;;;;;;6.20;99.90;;;;;;5070616;28;19925;-79
2021/12/30 03:29:20;;;;;;;;;;;6.20;99.90;;;;;;4967209;28;19928;-83
2021/12/30 03:31:47;;;;;;;;;;;6.20;99.90;;;;;;4791556;29;19931;-83
2021/12/30 03:34:14;;;;;;;;;;;6.30;99.90;;;;;;4557348;30;19945;-82
2021/12/30 03:41:45;;;;;;;;;;;6.30;99.90;;;;;;5174124;27;19925;-82
2021/12/30 03:44:12;;;;;;;;;;;6.30;99.90;;;;;;5117146;27;19923;-84
2021/12/30 03:46:39;;;;;;;;;;;6.40;99.90;;;;;;5116397;27;19931;-81
2021/12/30 03:49:06;;;;;;;;;;;6.40;99.90;;;;;;5106660;28;19924;-81
2021/12/30 03:51:38;;;;;;;;;;;6.40;99.90;;;;;;5048775;28;19942;-80
2021/12/30 03:54:05;;;;;;;;;;;6.40;99.90;;;;;;4887033;29;19929;-81
2021/12/30 03:56:32;;;;;;;;;;;6.40;99.90;;;;;;4595862;29;19936;-82
2021/12/30 04:04:04;;;;;;;;;;;6.50;99.90;;;;;;5174304;27;19925;-81
2021/12/30 04:06:30;;;;;;;;;;;6.50;99.90;;;;;;5120853;27;19930;-82
2021/12/30 04:08:58;;;;;;;;;;;6.60;99.90;;;;;;5116526;27;19931;-79
2021/12/30 04:11:25;;;;;;;;;;;6.60;99.90;;;;;;5073187;28;19925;-83
2021/12/30 04:13:52;;;;;;;;;;;6.60;99.90;;;;;;4947703;28;19935;-80
2021/12/30 04:16:19;;;;;;;;;;;6.70;99.90;;;;;;4856840;29;19929;-82
2021/12/30 04:18:48;;;;;;;;;;;6.80;99.90;;;;;;4654315;29;19935;-80
2021/12/30 04:26:21;;;;;;;;;;;6.90;99.90;;;;;;5179042;27;19930;-78
2021/12/30 04:28:48;;;;;;;;;;;7.00;99.90;;;;;;5141272;27;19924;-80
2021/12/30 04:31:15;;;;;;;;;;;7.10;99.90;;;;;;5095247;28;19932;-79
2021/12/30 04:33:41;;;;;;;;;;;7.10;99.90;;;;;;5058620;28;19932;-81
2021/12/30 04:36:08;;;;;;;;;;;7.20;99.90;;;;;;5004109;28;19931;-83
2021/12/30 04:38:35;;;;;;;;;;;7.20;99.90;;;;;;4782247;29;19939;-85
2021/12/30 04:41:03;;;;;;;;;;;7.20;99.90;;;;;;4482567;30;19946;-85
2021/12/30 04:48:20;;;;;;;;;;;7.40;99.90;;;;;;5160918;27;19930;-82
2021/12/30 04:50:47;;;;;;;;;;;7.40;99.90;;;;;;5083693;28;19924;-83
2021/12/30 04:53:14;;;;;;;;;;;7.50;99.90;;;;;;5042059;28;19931;-83
2021/12/30 04:55:41;;;;;;;;;;;7.50;99.90;;;;;;5024161;28;19926;-81
2021/12/30 04:58:08;;;;;;;;;;;7.60;99.90;;;;;;4944449;28;19934;-85
2021/12/30 05:00:35;;;;;;;;;;;7.60;99.90;;;;;;4901619;28;19937;-84
2021/12/30 05:03:08;;;;;;;;;;;7.60;99.90;;;;;;4664167;29;20013;-82
2021/12/30 05:10:41;;;;;;;;;;;7.60;99.90;;;;;;5167582;27;19930;-84
2021/12/30 05:13:09;;;;;;;;;;;7.70;99.90;;;;;;5121841;28;19934;-80
2021/12/30 05:15:36;;;;;;;;;;;7.70;99.90;;;;;;5083900;28;19938;-81
2021/12/30 05:18:03;;;;;;;;;;;7.70;99.90;;;;;;5052131;28;19933;-82
2021/12/30 05:20:29;;;;;;;;;;;7.70;99.90;;;;;;5008670;28;19931;-80
2021/12/30 05:22:56;;;;;;;;;;;7.80;99.90;;;;;;4880864;29;19929;-81
2021/12/30 05:25:23;;;;;;;;;;;7.80;99.90;;;;;;4654248;29;19934;-85
2021/12/30 05:32:56;;;;;;;;;;;7.90;99.90;;;;;;5153163;27;19927;-81
2021/12/30 05:35:23;;;;;;;;;;;7.90;99.90;;;;;;5095271;28;19932;-82
2021/12/30 05:37:50;;;;;;;;;;;7.90;99.90;;;;;;5090683;28;19924;-81
2021/12/30 05:40:18;;;;;;;;;;;7.90;99.90;;;;;;5078021;28;19944;-78
2021/12/30 05:42:45;;;;;;;;;;;8.00;99.90;;;;;;5031228;28;19933;-82
2021/12/30 05:45:14;;;;;;;;;;;8.00;99.90;;;;;;4864316;28;19938;-80
2021/12/30 05:47:41;;;;;;;;;;;8.00;99.90;;;;;;4483461;30;19938;-82
2021/12/30 05:54:24;;;;;;;;;;;8.10;99.90;;;;;;5173959;27;19925;-83
2021/12/30 05:56:51;;;;;;;;;;;8.10;99.90;;;;;;5116987;27;19924;-81
2021/12/30 05:59:18;;;;;;;;;;;8.10;99.90;;;;;;5087236;28;19925;-82
2021/12/30 06:01:44;;;;;;;;;;;8.20;99.90;;;;;;5037695;28;19933;-84
2021/12/30 06:04:11;;;;;;;;;;;8.20;99.90;;;;;;4985874;28;19934;-83
2021/12/30 06:06:38;;;;;;;;;;;8.20;99.90;;;;;;4775912;29;19936;-82
2021/12/30 06:09:04;;;;;;;;;;;8.20;99.90;;;;;;4530853;30;19936;-81
2021/12/30 06:16:07;;;;;;;;;;;8.20;99.90;;;;;;5175689;27;19942;-82
2021/12/30 06:18:33;;;;;;;;;;;8.30;99.90;;;;;;5120757;27;19931;-85
2021/12/30 06:21:00;;;;;;;;;;;8.30;99.90;;;;;;5084731;28;19933;-79
2021/12/30 06:23:27;;;;;;;;;;;8.40;99.90;;;;;;5041918;28;19932;-79
2021/12/30 06:25:53;;;;;;;;;;;8.40;99.90;;;;;;4979964;28;19928;-81
2021/12/30 06:28:20;;;;;;;;;;;8.50;99.90;;;;;;4834465;29;19940;-79
2021/12/30 06:30:46;;;;;;;;;;;8.50;99.90;;;;;;4652286;30;19951;-81
2021/12/30 06:38:15;;;;;;;;;;;8.50;99.90;;;;;;5176390;27;19926;-83
2021/12/30 06:40:41;;;;;;;;;;;8.50;99.90;;;;;;5132067;27;19923;-84
2021/12/30 06:43:09;;;;;;;;;;;8.50;99.90;;;;;;5085323;28;19932;-82
2021/12/30 06:45:35;;;;;;;;;;;8.50;99.90;;;;;;5069289;28;19924;-80
2021/12/30 06:48:04;;;;;;;;;;;8.40;99.90;;;;;;5020037;28;19934;-81
2021/12/30 06:50:32;;;;;;;;;;;8.30;99.90;;;;;;4847388;29;19930;-84
2021/12/30 06:52:59;;;;;;;;;;;8.30;99.90;;;;;;4573104;30;19944;-82
2021/12/30 07:00:30;;;;;;;;;;;8.40;99.90;;;;;;5174512;27;19926;-83
2021/12/30 07:02:57;;;;;;;;;;;8.40;99.90;;;;;;5147642;27;19924;-79
2021/12/30 07:05:24;;;;;;;;;;;8.30;99.90;;;;;;5141818;27;19945;-83
2021/12/30 07:07:51;;;;;;;;;;;8.30;99.90;;;;;;5128815;27;19935;-83
2021/12/30 07:10:18;;;;;;;;;;;8.30;99.90;;;;;;5010994;28;19935;-82
2021/12/30 07:12:44;;;;;;;;;;;8.20;99.90;;;;;;4753376;29;19939;-82
2021/12/30 07:15:11;;;;;;;;;;;8.20;99.90;;;;;;4492995;30;19939;-81
2021/12/30 07:22:42;;;;;;;;;;;8.20;99.90;;;;;;5157893;27;19926;-82
2021/12/30 07:25:10;;;;;;;;;;;8.20;99.90;;;;;;5117269;27;19930;-89
2021/12/30 07:27:36;;;;;;;;;;;8.30;99.90;;;;;;5110747;28;19931;-86
2021/12/30 07:30:03;;;;;;;;;;;8.20;99.90;;;;;;5073180;28;19932;-84
2021/12/30 07:32:30;;;;;;;;;;;8.30;99.90;;;;;;5018870;28;19938;-87
2021/12/30 07:34:57;;;;;;;;;;;8.30;99.90;;;;;;4844456;29;19932;-86
2021/12/30 07:37:23;;;;;;;;;;;8.30;99.90;;;;;;4638769;30;19934;-87
2021/12/30 07:44:25;;;;;;;;;;;8.40;99.90;;;;;;5183303;27;19926;-81
2021/12/30 07:46:52;;;;;;;;;;;8.40;99.90;;;;;;5122707;27;19923;-84
2021/12/30 07:49:19;;;;;;;;;;;8.50;99.90;;;;;;5138084;27;19931;-82
2021/12/30 07:51:45;;;;;;;;;;;8.50;99.90;;;;;;5153003;27;19923;-80
2021/12/30 07:54:15;;;;;;;;;;;8.50;99.90;;;;;;5065111;28;19934;-82
2021/12/30 07:56:42;;;;;;;;;;;8.50;99.90;;;;;;4772597;29;19943;-82
2021/12/30 07:59:08;;;;;;;;;;;8.50;99.90;;;;;;4510105;30;19937;-82
2021/12/30 08:06:40;;;;;;;;;;;8.50;99.90;;;;;;5174617;27;19925;-80
2021/12/30 08:09:07;;;;;;;;;;;8.60;99.90;;;;;;5137814;27;19927;-83
2021/12/30 08:11:34;;;;;;;;;;;8.60;99.90;;;;;;5127149;27;19931;-83
2021/12/30 08:14:01;;;;;;;;;;;8.60;99.90;;;;;;5095001;28;19939;-81
2021/12/30 08:16:27;;;;;;;;;;;8.60;99.90;;;;;;5068159;28;19932;-81
2021/12/30 08:18:54;;;;;;;;;;;8.60;99.90;;;;;;4871740;28;19929;-83
2021/12/30 08:21:22;;;;;;;;;;;8.60;99.90;;;;;;4655894;29;19934;-83
2021/12/30 08:28:55;;;;;;;;;;;8.70;99.90;;;;;;5183034;27;19926;-78
2021/12/30 08:31:21;;;;;;;;;;;8.70;99.90;;;;;;5139487;28;19923;-81
2021/12/30 08:33:48;;;;;;;;;;;8.70;99.90;;;;;;5132610;27;19922;-79
2021/12/30 08:36:15;;;;;;;;;;;8.70;99.90;;;;;;5126505;27;19931;-80
2021/12/30 08:38:42;;;;;;;;;;;8.70;99.90;;;;;;5091519;28;19937;-83
2021/12/30 08:41:08;;;;;;;;;;;8.70;99.90;;;;;;4975979;28;19928;-81
2021/12/30 08:43:35;;;;;;;;;;;8.80;99.90;;;;;;4759664;29;19936;-79
2021/12/30 08:46:03;;;;;;;;;;;8.80;99.90;;;;;;4570882;30;19937;-86
2021/12/30 08:51:09;;;;;;;;;;;8.80;99.90;;;;;;5160162;27;19926;-82
2021/12/30 08:53:40;;;;;;;;;;;8.70;99.90;;;;;;5090164;28;19931;-82
2021/12/30 08:56:07;;;;;;;;;;;8.80;99.90;;;;;;5092688;28;19931;-81
2021/12/30 08:58:33;;;;;;;;;;;8.80;99.90;;;;;;5083794;28;19924;-80
2021/12/30 09:01:00;;;;;;;;;;;8.80;99.90;;;;;;4997458;28;19934;-81
2021/12/30 09:03:26;;;;;;;;;;;8.80;99.90;;;;;;4813257;29;19938;-82
2021/12/30 09:05:53;;;;;;;;;;;8.80;99.90;;;;;;4623471;30;19934;-84
2021/12/30 09:11:06;;;;;;;;;;;8.90;99.90;;;;;;5145745;27;19934;-82
2021/12/30 09:13:33;;;;;;;;;;;8.90;99.90;;;;;;5075452;28;19924;-83
2021/12/30 09:16:01;;;;;;;;;;;8.90;99.90;;;;;;5089050;28;19932;-83
2021/12/30 09:18:28;;;;;;;;;;;8.80;99.90;;;;;;5044210;28;19925;-82
2021/12/30 09:20:55;;;;;;;;;;;8.90;99.90;;;;;;4967862;28;19927;-82
2021/12/30 09:23:21;;;;;;;;;;;8.90;99.90;;;;;;4817745;29;19931;-85
2021/12/30 09:25:48;;;;;;;;;;;9.00;99.90;;;;;;4565509;30;19936;-83
2021/12/30 09:33:18;;;;;;;;;;;9.00;99.90;;;;;;5173352;27;19926;-81
2021/12/30 09:35:47;;;;;;;;;;;9.00;99.90;;;;;;5137455;27;19923;-86
2021/12/30 09:38:14;;;;;;;;;;;9.00;99.90;;;;;;5139090;27;19923;-84
2021/12/30 09:40:40;;;;;;;;;;;9.10;99.90;;;;;;5134841;27;19942;-82
2021/12/30 09:43:09;;;;;;;;;;;9.10;99.90;;;;;;5095555;28;19928;-86
2021/12/30 09:45:37;;;;;;;;;;;9.10;99.90;;;;;;5009094;28;19933;-83
2021/12/30 09:48:06;;;;;;;;;;;9.10;99.90;;;;;;4789578;29;19931;-81
2021/12/30 09:55:39;;;;;;;;;;;9.10;99.90;;;;;;5192094;27;20024;-80
2021/12/30 09:58:07;;;;;;;;;;;9.10;99.90;;;;;;5153142;27;19913;-83
2021/12/30 10:00:34;;;;;;;;;;;9.10;99.90;;;;;;5154308;27;19929;-81
2021/12/30 10:03:00;;;;;;;;;;;9.10;99.90;;;;;;5129479;27;19933;-82
2021/12/30 10:05:29;;;;;;;;;;;9.00;99.90;;;;;;5089415;28;19941;-82
2021/12/30 10:08:10;;;;;;;;;;;9.10;99.90;;;;;;4924761;28;19935;-83
2021/12/30 10:10:38;;;;;;;;;;;9.10;99.90;;;;;;4578782;30;19937;-86
2021/12/30 10:18:12;;;;;;;;;;;9.00;99.90;;;;;;5195606;27;19929;-87
2021/12/30 10:20:41;;;;;;;;;;;9.10;99.90;;;;;;5164046;27;19930;-81
2021/12/30 10:23:08;;;;;;;;;;;9.00;99.90;;;;;;5138618;27;19931;-81
2021/12/30 10:25:36;;;;;;;;;;;9.00;99.90;;;;;;5097076;28;19932;-80
2021/12/30 10:28:23;;;;;;;;;;;9.10;99.90;;;;;;4962803;28;19932;-81
2021/12/30 10:30:51;;;;;;;;;;;9.10;99.90;;;;;;4742131;29;19940;-84
2021/12/30 10:33:19;;;;;;;;;;;9.10;99.90;;;;;;4492215;31;19937;-80
2021/12/30 10:40:52;;;;;;;;;;;9.00;99.90;;;;;;5179282;27;19941;-85
2021/12/30 10:43:26;;;;;;;;;;;9.10;99.90;;;;;;5131756;27;19924;-85
2021/12/30 10:46:11;;;;;;;;;;;9.10;99.90;;;;;;5092529;28;19925;-82
2021/12/30 10:48:48;;;;;;;;;;;9.10;99.90;;;;;;5079776;28;19924;-83
2021/12/30 10:51:17;;;;;;;;;;;9.10;99.90;;;;;;4994770;28;19957;-82
2021/12/30 10:53:47;;;;;;;;;;;9.10;99.90;;;;;;4831656;28;19930;-86
2021/12/30 10:56:22;;;;;;;;;;;9.10;99.90;;;;;;4575755;30;19942;-83
2021/12/30 11:03:18;;;;;;;;;;;9.10;99.90;;;;;;5153778;27;19926;-82
2021/12/30 11:06:00;;;;;;;;;;;9.20;99.90;;;;;;5116698;27;19930;-87
2021/12/30 11:08:28;;;;;;;;;;;9.20;99.90;;;;;;5092730;28;20008;-85
2021/12/30 11:10:55;;;;;;;;;;;9.20;99.90;;;;;;5051880;28;19925;-86
2021/12/30 11:13:23;;;;;;;;;;;9.20;99.90;;;;;;4940157;28;19928;-85
2021/12/30 11:16:01;;;;;;;;;;;9.20;99.90;;;;;;4679201;29;19940;-83
2021/12/30 11:24:51;;;;;;;;;;;9.20;99.90;;;;;;5184942;27;19926;-81
2021/12/30 11:27:18;;;;;;;;;;;9.30;99.90;;;;;;5149299;27;19930;-85
2021/12/30 11:29:46;;;;;;;;;;;9.30;99.90;;;;;;5139343;28;19924;-81
2021/12/30 11:32:15;;;;;;;;;;;9.30;99.90;;;;;;5095231;28;19924;-82
2021/12/30 11:34:42;;;;;;;;;;;9.30;99.90;;;;;;5034038;28;19927;-83
2021/12/30 11:37:08;;;;;;;;;;;9.30;99.90;;;;;;4817961;29;19931;-81
2021/12/30 11:39:40;;;;;;;;;;;9.30;99.90;;;;;;4501297;30;19937;-84
2021/12/30 11:47:08;;;;;;;;;;;9.40;99.90;;;;;;5148328;27;19926;-82
2021/12/30 11:49:50;;;;;;;;;;;9.40;99.90;;;;;;5111349;27;19924;-82
2021/12/30 11:52:31;;;;;;;;;;;9.40;99.90;;;;;;5032140;28;19947;-84
2021/12/30 11:54:58;;;;;;;;;;;9.40;99.90;;;;;;5005382;28;19949;-84
2021/12/30 11:57:27;;;;;;;;;;;9.50;99.90;;;;;;4923526;28;19928;-81
2021/12/30 11:59:54;;;;;;;;;;;9.50;99.90;;;;;;4640081;30;19935;-82
2021/12/30 12:02:35;;;;;;;;;;;9.50;99.90;;;;;;4336235;31;19941;-83
2021/12/30 12:08:01;;;;;;;;;;;9.50;99.90;;;;;;5173708;27;19926;-81
2021/12/30 12:10:28;;;;;;;;;;;9.50;99.90;;;;;;5129776;27;19931;-81
2021/12/30 12:12:55;;;;;;;;;;;9.50;99.90;;;;;;5111644;28;19961;-84
2021/12/30 12:15:21;;;;;;;;;;;9.40;99.90;;;;;;5091598;28;19915;-83
2021/12/30 12:17:48;;;;;;;;;;;9.40;99.90;;;;;;5056558;28;19937;-80
2021/12/30 12:20:16;;;;;;;;;;;9.40;99.90;;;;;;4886350;28;19918;-80
2021/12/30 12:22:43;;;;;;;;;;;9.30;99.90;;;;;;4602683;30;20064;-85
2021/12/30 12:30:26;;;;;;;;;;;9.40;99.90;;;;;;5177015;27;19926;-84
2021/12/30 12:32:53;;;;;;;;;;;9.40;99.90;;;;;;5142091;27;19931;-84
2021/12/30 12:35:25;;;;;;;;;;;9.40;99.90;;;;;;5133386;27;19923;-81
2021/12/30 12:37:54;;;;;;;;;;;9.40;99.90;;;;;;5111573;28;19924;-83
2021/12/30 12:40:22;;;;;;;;;;;9.40;99.90;;;;;;5028909;28;19928;-82
2021/12/30 12:42:56;;;;;;;;;;;9.50;99.90;;;;;;4851410;29;19929;-86
2021/12/30 12:45:24;;;;;;;;;;;9.50;99.90;;;;;;4477152;30;19945;-84
2021/12/30 12:52:56;;;;;;;;;;;9.50;99.90;;;;;;5155172;27;19926;-85
2021/12/30 12:55:23;;;;;;;;;;;9.50;99.90;;;;;;5116979;27;19923;-84
2021/12/30 12:57:49;;;;;;;;;;;9.40;99.90;;;;;;5114769;27;19931;-84
2021/12/30 13:00:16;;;;;;;;;;;9.40;99.90;;;;;;5082047;28;19925;-84
2021/12/30 13:02:45;;;;;;;;;;;9.40;99.90;;;;;;5009673;28;19926;-88
2021/12/30 13:05:15;;;;;;;;;;;9.40;99.90;;;;;;4774805;29;19932;-87
2021/12/30 13:07:42;;;;;;;;;;;9.40;99.90;;;;;;4435505;31;19939;-88
2021/12/30 13:15:20;;;;;;;;;;;9.40;99.90;;;;;;5174496;27;19926;-80
2021/12/30 13:17:47;;;;;;;;;;;9.40;99.90;;;;;;5127069;27;19931;-81
2021/12/30 13:20:17;;;;;;;;;;;9.40;99.90;;;;;;5104247;28;19931;-82
2021/12/30 13:22:44;;;;;;;;;;;9.40;99.90;;;;;;5069548;28;19940;-87
2021/12/30 13:25:11;;;;;;;;;;;9.50;99.90;;;;;;4938935;28;19952;-85
2021/12/30 13:27:38;;;;;;;;;;;9.40;99.90;;;;;;4814511;29;19938;-82
2021/12/30 13:30:07;;;;;;;;;;;9.50;99.90;;;;;;4495164;30;19937;-81
2021/12/30 13:37:40;;;;;;;;;;;9.50;99.90;;;;;;5142522;27;19926;-84
2021/12/30 13:40:14;;;;;;;;;;;9.60;99.90;;;;;;5102433;28;19931;-83
2021/12/30 13:42:45;;;;;;;;;;;9.50;99.90;;;;;;5066168;28;19923;-81
2021/12/30 13:45:12;;;;;;;;;;;9.60;99.90;;;;;;5067503;28;19932;-85
2021/12/30 13:47:39;;;;;;;;;;;9.60;99.90;;;;;;4943229;28;19936;-83
2021/12/30 13:50:07;;;;;;;;;;;9.70;99.90;;;;;;4746030;29;19931;-83
2021/12/30 13:52:35;;;;;;;;;;;9.70;99.90;;;;;;4539872;30;19937;-81
2021/12/30 13:59:42;;;;;;;;;;;9.70;99.90;;;;;;5183052;27;19925;-80
2021/12/30 14:02:09;;;;;;;;;;;9.70;99.90;;;;;;5119464;27;19931;-81
2021/12/30 14:04:38;;;;;;;;;;;9.80;99.90;;;;;;5095792;28;19924;-81
2021/12/30 14:07:05;;;;;;;;;;;9.70;99.90;;;;;;5034508;28;19926;-81
2021/12/30 14:09:32;;;;;;;;;;;9.80;99.90;;;;;;4955097;28;19927;-83
2021/12/30 14:12:07;;;;;;;;;;;9.80;99.90;;;;;;4759780;29;19935;-82
2021/12/30 14:14:35;;;;;;;;;;;9.80;99.90;;;;;;4485790;30;19993;-83
2021/12/30 14:21:34;;;;;;;;;;;9.80;99.90;;;;;;5164076;27;19934;-81
2021/12/30 14:24:08;;;;;;;;;;;9.80;99.90;;;;;;5099072;27;19923;-80
2021/12/30 14:26:35;;;;;;;;;;;9.80;99.90;;;;;;5092691;27;19932;-81
2021/12/30 14:29:03;;;;;;;;;;;9.90;99.90;;;;;;5101999;28;19925;-80
2021/12/30 14:31:30;;;;;;;;;;;9.90;99.90;;;;;;4991820;28;19935;-79
2021/12/30 14:34:01;;;;;;;;;;;9.90;99.90;;;;;;4831448;29;19991;-79
2021/12/30 14:36:28;;;;;;;;;;;9.90;99.90;;;;;;4569349;30;19944;-79
2021/12/30 14:43:15;;;;;;;;;;;10.00;99.90;;;;;;5187941;27;19925;-80
2021/12/30 14:45:43;;;;;;;;;;;10.00;99.90;;;;;;5135752;27;19930;-84
2021/12/30 14:48:10;;;;;;;;;;;10.10;99.90;;;;;;5116859;27;19924;-81
2021/12/30 14:50:39;;;;;;;;;;;10.00;99.90;;;;;;5104287;28;19924;-81
2021/12/30 14:53:15;;;;;;;;;;;10.00;99.90;;;;;;4985630;28;19934;-86
2021/12/30 14:55:43;;;;;;;;;;;10.10;99.90;;;;;;4775339;29;19931;-83
2021/12/30 14:58:10;;;;;;;;;;;10.10;99.90;;;;;;4600619;30;19965;-84
2021/12/30 15:05:42;;;;;;;;;;;10.20;99.90;;;;;;5173641;27;19925;-82
2021/12/30 15:08:09;;;;;;;;;;;10.20;99.90;;;;;;5132305;27;19923;-82
2021/12/30 15:10:36;;;;;;;;;;;10.30;99.90;;;;;;5110711;27;19923;-84
2021/12/30 15:13:05;;;;;;;;;;;10.30;99.90;;;;;;5091408;27;19925;-82
2021/12/30 15:15:32;;;;;;;;;;;10.40;99.90;;;;;;5052936;28;19932;-84
2021/12/30 15:17:59;;;;;;;;;;;10.40;99.90;;;;;;4949969;28;19928;-81
2021/12/30 15:20:29;;;;;;;;;;;10.50;99.90;;;;;;4702962;29;19933;-82
2021/12/30 15:22:57;;;;;;;;;;;10.60;99.90;;;;;;4477528;31;19936;-84
2021/12/30 15:30:31;;;;;;;;;;;;;;;;;;5173423;27;19926;-83
2021/12/30 15:33:00;;;;;;;;;;;;;;;;;;5131084;27;19930;-82
2021/12/30 15:35:27;;;;;;;;;;;;;;;;;;5092549;28;19924;-80
2021/12/30 15:37:54;;;;;;;;;;;;;;;;;;5031709;28;19938;-82
2021/12/30 15:40:20;;;;;;;;;;;;;;;;;;4990404;28;19927;-84
2021/12/30 15:42:47;;;;;;;;;;;;;;;;;;4804082;29;19930;-80
2021/12/30 15:45:14;;;;;;;;;;;;;;;;;;4651750;30;19957;-86
2021/12/30 15:52:44;;;;;;;;;;;;;;;;;;5157779;27;19927;-82
2021/12/30 15:55:12;;;;;;;;;;;;;;;;;;5098857;28;19923;-83
2021/12/30 15:57:39;;;;;;;;;;;;;;;;;;5097975;28;19927;-82
2021/12/30 16:00:06;;;;;;;;;;;;;;;;;;5054664;28;19929;-84
2021/12/30 16:02:38;;;;;;;;;;;;;;;;;;5011543;28;19926;-84
2021/12/30 16:05:05;;;;;;;;;;;;;;;;;;4876841;29;19929;-80
2021/12/30 16:07:32;;;;;;;;;;;;;;;;;;4622068;30;19935;-81
2021/12/30 16:12:45;;;;;;;;;;;;;;;;;;5156395;27;19926;-80
2021/12/30 16:15:12;;;;;;;;;;;;;;;;;;5116225;27;19923;-79
2021/12/30 16:17:39;;;;;;;;;;;;;;;;;;5115121;27;19924;-82
2021/12/30 16:20:06;;;;;;;;;;;;;;;;;;5105320;28;19931;-81
2021/12/30 16:22:33;;;;;;;;;;;;;;;;;;5042036;28;19926;-79
2021/12/30 16:25:00;;;;;;;;;;;;;;;;;;4905087;29;19929;-80
2021/12/30 16:27:27;;;;;;;;;;;;;;;;;;4699231;29;19934;-79
2021/12/30 16:35:00;;;;;;;;;;;;;;;;;;5175747;27;19925;-79
2021/12/30 16:37:27;;;;;;;;;;;;;;;;;;5119592;27;19924;-78
2021/12/30 16:39:54;;;;;;;;;;;;;;;;;;5134259;27;19924;-81
2021/12/30 16:42:20;;;;;;;;;;;;;;;;;;5040796;28;19937;-80
2021/12/30 16:44:47;;;;;;;;;;;;;;;;;;4929166;28;19943;-81
2021/12/30 16:47:14;;;;;;;;;;;;;;;;;;4760032;29;19932;-80
2021/12/30 16:49:42;;;;;;;;;;;;;;;;;;4575638;31;19934;-82
2021/12/30 16:57:14;;;;;;;;;;;;;;;;;;5185453;27;19925;-84
2021/12/30 16:59:40;;;;;;;;;;;;;;;;;;5150723;27;19924;-82
2021/12/30 17:02:07;;;;;;;;;;;;;;;;;;5115199;28;20645;-81
2021/12/30 17:04:34;;;;;;;;;;;;;;;;;;5046739;28;19926;-82
2021/12/30 17:07:06;;;;;;;;;;;;;;;;;;4921247;28;19936;-83
2021/12/30 17:09:32;;;;;;;;;;;;;;;;;;4741562;29;19931;-81
2021/12/30 17:11:59;;;;;;;;;;;;;;;;;;4571739;30;19935;-81
2021/12/30 17:19:31;;;;;;;;;;;;;;;;;;5172900;27;19926;-83
2021/12/30 17:21:58;;;;;;;;;;;;;;;;;;5131423;27;19924;-80
2021/12/30 17:24:25;;;;;;;;;;;;;;;;;;5095526;28;19931;-81
2021/12/30 17:26:52;;;;;;;;;;;;;;;;;;5069442;28;19925;-83
2021/12/30 17:29:19;;;;;;;;;;;;;;;;;;5019702;28;19927;-80
2021/12/30 17:31:46;;;;;;;;;;;;;;;;;;4831848;29;19946;-82
2021/12/30 17:34:12;;;;;;;;;;;;;;;;;;4646177;30;19934;-82
2021/12/30 17:41:41;;;;;;;;;;;;;;;;;;5166224;27;19926;-82
2021/12/30 17:44:08;;;;;;;;;;;;;;;;;;5116405;27;19923;-84
2021/12/30 17:46:35;;;;;;;;;;;;;;;;;;5112322;28;19932;-84
2021/12/30 17:49:02;;;;;;;;;;;;;;;;;;5069511;28;19926;-82
2021/12/30 17:51:29;;;;;;;;;;;;;;;;;;4963352;28;19928;-81
2021/12/30 17:53:55;;;;;;;;;;;;;;;;;;4829050;29;19931;-83
2021/12/30 17:56:22;;;;;;;;;;;;;;;;;;4627199;30;19933;-81
2021/12/30 18:01:39;;;;;;;;;;;;;;;;;;5166116;27;19941;-83
2021/12/30 18:04:07;;;;;;;;;;;;;;;;;;5116944;27;19923;-81
2021/12/30 18:06:34;;;;;;;;;;;;;;;;;;5107572;28;19924;-83
2021/12/30 18:09:01;;;;;;;;;;;;;;;;;;5055641;28;19932;-83
2021/12/30 18:11:29;;;;;;;;;;;;;;;;;;4942007;28;19928;-81
2021/12/30 18:13:56;;;;;;;;;;;;;;;;;;4712970;29;19934;-81
2021/12/30 18:16:23;;;;;;;;;;;;;;;;;;4398123;31;19948;-84
2021/12/30 18:23:55;;;;;;;;;;;;;;;;;;5173241;27;19926;-85
2021/12/30 18:26:22;;;;;;;;;;;;;;;;;;5131137;27;19924;-84
2021/12/30 18:28:49;;;;;;;;;;;;;;;;;;5084996;28;20922;-85
2021/12/30 18:31:16;;;;;;;;;;;;;;;;;;5018062;28;19926;-82
2021/12/30 18:33:43;;;;;;;;;;;;;;;;;;4964026;28;19927;-82
2021/12/30 18:36:10;;;;;;;;;;;;;;;;;;4756873;29;19931;-82
2021/12/30 18:38:37;;;;;;;;;;;;;;;;;;4562726;30;19942;-81
2021/12/30 18:45:08;;;;;;;;;;;;;;;;;;5180577;27;19930;-81
2021/12/30 18:47:35;;;;;;;;;;;;;;;;;;5146054;27;19930;-80
2021/12/30 18:50:03;;;;;;;;;;;;;;;;;;5119979;27;19938;-80
2021/12/30 18:52:30;;;;;;;;;;;;;;;;;;5079759;28;19929;-81
2021/12/30 18:54:56;;;;;;;;;;;;;;;;;;4972766;28;19938;-83
2021/12/30 18:57:23;;;;;;;;;;;;;;;;;;4784333;29;19933;-81